KVLD/VLD METAR and TAF weather

Enter ICAO airport designator
Station Type Date Time Source
KVLD METAR 2021/09/16 21:53 UTC NOAA

KVLD 162153Z VRB04G17KT 5SM -RA BKN030 BKN042 OVC070 27/23 A2996 RMK AO2 LTG DSNT NW-NE RAB32 SLP150 P0027 T02670228


Station Type Date Time Source
KVLD Decoded METAR 2021/09/16 21:53 UTC NOAA

VALDOSTA REGIONAL AIRPORT, GA, United States (KVLD) 30-47N 083-16W
Sep 16, 2021 - 05:53 PM EDT / 2021.09.16 2153 UTC
Wind: Variable at 5 MPH (4 KT) gusting to 20 MPH (17 KT):0
Visibility: 5 mile(s):0
Sky conditions: overcast
Weather: light rain; Lightning observed
Precipitation last hour: 0.27 inches
Temperature: 80.1 F (26.7 C)
Dew Point: 73.0 F (22.8 C)
Relative Humidity: 79%
Pressure (altimeter): 29.96 in. Hg (1014 hPa)
ob: KVLD 162153Z VRB04G17KT 5SM -RA BKN030 BKN042 OVC070 27/23 A2996 RMK AO2 LTG DSNT NW-NE RAB32 SLP150 P0027 T02670228
cycle: 22

Station Type Date Time Source
KVLD TAF 2021/09/16 18:39 UTC NOAA

TAF KVLD 161737Z 1618/1718 18008KT P6SM SCT020 BKN070
FM162100 11006KT P6SM VCTS SCT015CB BKN030
FM170100 10005KT 5SM BR OVC020
FM170400 VRB03KT 4SM BR SCT004 OVC008
FM170800 00000KT 3SM BR OVC004
FM171500 13004KT P6SM OVC008
FM171700 15005KT P6SM OVC020

Example: see airport list